createdAt,value
2022-09-15T00:00:25.568Z,12.40
2022-09-15T00:02:54.076Z,12.40
2022-09-15T00:05:45.473Z,12.40
2022-09-15T00:08:14.458Z,12.50
2022-09-15T00:10:49.801Z,12.50
2022-09-15T00:13:18.669Z,12.50
2022-09-15T00:15:47.764Z,12.50
2022-09-15T00:18:16.790Z,12.50
2022-09-15T00:20:47.671Z,12.50
2022-09-15T00:23:22.444Z,12.50
2022-09-15T00:25:52.707Z,12.50
2022-09-15T00:28:22.913Z,12.50
2022-09-15T00:30:55.765Z,12.50
2022-09-15T00:33:24.716Z,12.50
2022-09-15T00:35:55.536Z,12.50
2022-09-15T00:38:23.928Z,12.50
2022-09-15T00:40:54.540Z,12.50
2022-09-15T00:43:43.037Z,12.60
2022-09-15T00:46:11.999Z,12.60
2022-09-15T00:48:52.429Z,12.60
2022-09-15T00:51:29.446Z,12.60
2022-09-15T00:53:59.081Z,12.60
2022-09-15T00:56:28.625Z,12.70
2022-09-15T00:59:01.208Z,12.70
2022-09-15T01:01:31.911Z,12.70
2022-09-15T01:04:01.012Z,12.70
2022-09-15T01:06:35.018Z,12.70
2022-09-15T01:09:08.835Z,12.70
2022-09-15T01:11:38.002Z,12.70
2022-09-15T01:14:06.400Z,12.70
2022-09-15T01:20:09.763Z,12.70
2022-09-15T01:22:54.054Z,12.70
2022-09-15T01:25:39.150Z,12.70
2022-09-15T01:29:00.117Z,12.70
2022-09-15T01:31:34.977Z,12.70
2022-09-15T01:34:08.277Z,12.60
2022-09-15T01:36:44.440Z,12.70
2022-09-15T01:39:18.210Z,12.70
2022-09-15T01:41:50.591Z,12.70
2022-09-15T01:44:24.555Z,12.70
2022-09-15T01:46:58.412Z,12.70
2022-09-15T01:49:31.484Z,12.70
2022-09-15T01:52:02.883Z,12.60
2022-09-15T01:54:35.003Z,12.70
2022-09-15T01:57:04.366Z,12.60
2022-09-15T01:59:33.272Z,12.70
2022-09-15T02:02:06.604Z,12.70
2022-09-15T02:04:40.020Z,12.70
2022-09-15T02:07:14.770Z,12.70
2022-09-15T02:09:49.746Z,12.70
2022-09-15T02:12:23.089Z,12.70
2022-09-15T02:15:03.704Z,12.70
2022-09-15T02:18:02.707Z,12.70
2022-09-15T02:20:42.629Z,12.70
2022-09-15T02:23:17.284Z,12.70
2022-09-15T02:25:51.720Z,12.70
2022-09-15T02:28:25.276Z,12.70
2022-09-15T02:30:56.307Z,12.70
2022-09-15T02:33:29.614Z,12.70
2022-09-15T02:36:00.556Z,12.70
2022-09-15T02:38:34.595Z,12.70
2022-09-15T02:41:03.948Z,12.70
2022-09-15T02:43:33.683Z,12.80
2022-09-15T02:46:02.166Z,12.80
2022-09-15T02:48:30.679Z,12.80
2022-09-15T02:51:15.863Z,12.80
2022-09-15T02:53:44.659Z,12.80
2022-09-15T02:56:13.475Z,12.70
2022-09-15T02:58:41.869Z,12.70
2022-09-15T03:01:15.671Z,12.70
2022-09-15T03:03:45.113Z,12.70
2022-09-15T03:06:18.478Z,12.70
2022-09-15T03:08:49.697Z,12.70
2022-09-15T03:11:19.550Z,12.70
2022-09-15T03:13:48.016Z,12.80
2022-09-15T03:16:17.872Z,12.80
2022-09-15T03:18:46.281Z,12.80
2022-09-15T03:21:18.754Z,12.80
2022-09-15T03:23:48.336Z,12.80
2022-09-15T03:26:17.504Z,12.80
2022-09-15T03:28:46.284Z,12.80
2022-09-15T03:31:14.948Z,12.80
2022-09-15T03:33:43.331Z,12.90
2022-09-15T03:36:11.901Z,12.90
2022-09-15T03:39:10.291Z,12.90
2022-09-15T03:41:47.830Z,12.90
2022-09-15T03:44:16.510Z,12.90
2022-09-15T03:46:44.735Z,12.90
2022-09-15T03:49:13.516Z,12.90
2022-09-15T03:51:42.333Z,13.00
2022-09-15T03:54:10.654Z,13.00
2022-09-15T03:56:40.516Z,13.00
2022-09-15T03:59:09.419Z,13.00
2022-09-15T04:01:37.986Z,13.00
2022-09-15T04:04:06.990Z,13.00
2022-09-15T04:06:35.820Z,13.00
2022-09-15T04:09:04.340Z,12.90
2022-09-15T04:11:33.175Z,12.80
2022-09-15T04:14:03.013Z,12.80
2022-09-15T04:16:31.421Z,12.80
2022-09-15T04:18:59.803Z,12.70
2022-09-15T04:21:28.475Z,12.70
2022-09-15T04:23:56.980Z,12.60
2022-09-15T04:26:31.350Z,12.60
2022-09-15T04:29:04.187Z,12.60
2022-09-15T04:31:35.348Z,12.50
2022-09-15T04:34:03.918Z,12.50
2022-09-15T04:36:33.018Z,12.50
2022-09-15T04:39:01.510Z,12.50
2022-09-15T04:41:30.496Z,12.50
2022-09-15T04:43:59.116Z,12.50
2022-09-15T04:46:27.916Z,12.50
2022-09-15T04:48:58.506Z,12.50
2022-09-15T04:51:27.353Z,12.50
2022-09-15T04:53:55.906Z,12.50
2022-09-15T04:56:26.867Z,12.50
2022-09-15T04:59:02.512Z,12.50
2022-09-15T05:01:33.898Z,12.50
2022-09-15T05:04:05.718Z,12.50
2022-09-15T05:06:36.083Z,12.50
2022-09-15T05:09:09.982Z,12.60
2022-09-15T05:11:39.452Z,12.60
2022-09-15T05:14:08.170Z,12.60
2022-09-15T05:16:36.673Z,12.60
2022-09-15T05:19:22.222Z,12.70
2022-09-15T05:21:50.776Z,12.70
2022-09-15T05:24:19.198Z,12.60
2022-09-15T05:26:47.750Z,12.70
2022-09-15T05:29:16.134Z,12.70
2022-09-15T05:31:44.474Z,12.70
2022-09-15T05:34:13.162Z,12.80
2022-09-15T05:36:42.983Z,12.80
2022-09-15T05:39:11.359Z,12.90
2022-09-15T05:41:39.907Z,12.90
2022-09-15T05:44:08.118Z,12.90
2022-09-15T05:46:36.610Z,13.00
2022-09-15T05:49:05.315Z,13.00
2022-09-15T05:51:33.604Z,13.00
2022-09-15T05:54:18.200Z,13.10
2022-09-15T05:56:46.670Z,13.10
2022-09-15T05:59:15.171Z,13.10
2022-09-15T06:01:43.751Z,13.20
2022-09-15T06:04:13.602Z,13.20
2022-09-15T06:06:41.971Z,13.20
2022-09-15T06:09:10.354Z,13.30
2022-09-15T06:11:40.196Z,13.40
2022-09-15T06:14:09.219Z,13.40
2022-09-15T06:16:40.203Z,13.50
2022-09-15T06:19:08.883Z,13.50
2022-09-15T06:21:37.517Z,13.50
2022-09-15T06:24:07.417Z,13.60
2022-09-15T06:26:35.931Z,13.70
2022-09-15T06:29:07.637Z,13.70
2022-09-15T06:31:37.217Z,13.80
2022-09-15T06:36:53.124Z,13.90
2022-09-15T06:39:21.610Z,13.90
2022-09-15T06:42:02.163Z,13.90
2022-09-15T06:45:01.463Z,13.90
2022-09-15T06:47:34.118Z,13.90
2022-09-15T06:50:03.509Z,14.00
2022-09-15T06:52:31.944Z,14.00
2022-09-15T06:55:00.445Z,14.00
2022-09-15T06:57:29.264Z,14.10
2022-09-15T06:59:57.599Z,14.10
2022-09-15T07:02:26.160Z,14.10
2022-09-15T07:04:58.399Z,14.20
2022-09-15T07:07:27.087Z,14.20
2022-09-15T07:09:55.626Z,14.20
2022-09-15T07:12:24.680Z,14.30
2022-09-15T07:14:56.280Z,14.40
2022-09-15T07:17:27.541Z,14.50
2022-09-15T07:19:58.975Z,14.60
2022-09-15T07:22:27.569Z,14.70
2022-09-15T07:24:56.310Z,14.70
2022-09-15T07:27:26.951Z,14.80
2022-09-15T07:29:55.504Z,14.80
2022-09-15T07:32:26.762Z,14.90
2022-09-15T07:34:58.457Z,14.90
2022-09-15T07:37:35.937Z,14.90
2022-09-15T07:40:05.665Z,14.90
2022-09-15T07:42:35.539Z,14.90
2022-09-15T07:45:08.512Z,15.00
2022-09-15T07:47:41.936Z,15.20
2022-09-15T07:50:14.558Z,15.20
2022-09-15T07:52:43.113Z,15.30
2022-09-15T07:55:11.708Z,15.40
2022-09-15T07:57:40.366Z,15.50
2022-09-15T08:00:16.195Z,15.50
2022-09-15T08:02:44.988Z,15.60
2022-09-15T08:05:14.844Z,15.60
2022-09-15T08:07:43.237Z,15.70
2022-09-15T08:10:13.759Z,15.70
2022-09-15T08:12:42.360Z,15.80
2022-09-15T08:15:12.890Z,15.90
2022-09-15T08:18:10.320Z,16.20
2022-09-15T08:20:44.092Z,16.60
2022-09-15T08:23:12.941Z,16.80
2022-09-15T08:25:41.659Z,16.90
2022-09-15T08:28:35.128Z,16.90
2022-09-15T08:31:07.931Z,16.80
2022-09-15T08:33:39.837Z,16.80
2022-09-15T08:36:29.804Z,16.80
2022-09-15T08:39:06.206Z,16.90
2022-09-15T08:41:43.577Z,17.10
2022-09-15T08:44:42.019Z,17.40
2022-09-15T08:47:16.289Z,17.70
2022-09-15T08:49:53.302Z,17.90
2022-09-15T08:52:34.786Z,18.10
2022-09-15T08:55:12.588Z,18.40
2022-09-15T08:57:41.268Z,18.40
2022-09-15T09:00:19.076Z,18.40
2022-09-15T09:03:23.428Z,18.40
2022-09-15T09:06:13.596Z,18.30
2022-09-15T09:09:40.428Z,18.20
2022-09-15T09:12:36.616Z,18.00
2022-09-15T09:15:17.494Z,18.00
2022-09-15T09:18:21.329Z,17.90
2022-09-15T09:20:58.699Z,18.00
2022-09-15T09:23:49.734Z,18.20
2022-09-15T09:26:34.266Z,18.20
2022-09-15T09:29:13.747Z,18.30
2022-09-15T09:32:02.211Z,18.40
2022-09-15T09:34:38.999Z,18.60
2022-09-15T09:37:12.107Z,18.70
2022-09-15T09:39:41.164Z,18.90
2022-09-15T09:42:15.703Z,19.00
2022-09-15T09:44:44.164Z,18.80
2022-09-15T09:47:15.484Z,18.70
2022-09-15T09:50:03.912Z,18.70
2022-09-15T09:52:40.913Z,18.80
2022-09-15T09:55:25.056Z,18.90
2022-09-15T09:58:14.586Z,18.90
2022-09-15T10:00:45.615Z,19.10
2022-09-15T10:03:29.290Z,19.20
2022-09-15T10:06:15.820Z,19.40
2022-09-15T10:09:03.602Z,19.50
2022-09-15T10:11:49.999Z,19.70
2022-09-15T10:14:22.827Z,19.70
2022-09-15T10:17:04.339Z,19.80
2022-09-15T10:19:39.009Z,19.80
2022-09-15T10:22:10.189Z,19.70
2022-09-15T10:24:41.277Z,19.50
2022-09-15T10:27:19.223Z,19.40
2022-09-15T10:30:17.451Z,19.40
2022-09-15T10:32:45.852Z,19.40
2022-09-15T10:35:18.939Z,19.40
2022-09-15T10:38:04.961Z,19.40
2022-09-15T10:40:39.795Z,19.30
2022-09-15T10:43:32.834Z,19.30
2022-09-15T10:46:06.322Z,19.30
2022-09-15T10:48:46.252Z,19.40
2022-09-15T10:51:54.030Z,19.40
2022-09-15T10:54:43.867Z,19.30
2022-09-15T10:57:28.188Z,19.20
2022-09-15T11:00:06.714Z,19.20
2022-09-15T11:03:10.095Z,19.30
2022-09-15T11:05:56.262Z,19.40
2022-09-15T11:08:42.539Z,19.50
2022-09-15T11:11:22.901Z,19.60
2022-09-15T11:14:08.299Z,19.60
2022-09-15T11:16:49.406Z,19.60
2022-09-15T11:20:01.129Z,19.50
2022-09-15T11:22:39.859Z,19.40
2022-09-15T11:25:44.122Z,19.30
2022-09-15T11:28:26.188Z,19.30
2022-09-15T11:31:13.824Z,19.40
2022-09-15T11:33:46.276Z,19.50
2022-09-15T11:36:23.999Z,19.80
2022-09-15T11:38:59.200Z,19.90
2022-09-15T11:41:42.122Z,19.70
2022-09-15T11:44:21.862Z,19.40
2022-09-15T11:47:16.916Z,19.30
2022-09-15T11:49:51.822Z,19.40
2022-09-15T11:53:01.361Z,19.60
2022-09-15T11:55:41.067Z,19.90
2022-09-15T11:58:22.000Z,20.10
2022-09-15T12:00:56.995Z,20.10
2022-09-15T12:03:30.361Z,20.00
2022-09-15T12:06:04.875Z,19.90
2022-09-15T12:08:41.060Z,19.70
2022-09-15T12:11:17.703Z,19.50
2022-09-15T12:13:51.514Z,19.40
2022-09-15T12:16:21.540Z,19.20
2022-09-15T12:19:14.921Z,19.00
2022-09-15T12:21:52.208Z,19.00
2022-09-15T12:24:46.352Z,19.10
2022-09-15T12:27:20.889Z,19.10
2022-09-15T12:29:55.093Z,19.10
2022-09-15T12:32:31.018Z,19.20
2022-09-15T12:35:02.990Z,19.40
2022-09-15T12:37:38.011Z,19.30
2022-09-15T12:40:26.506Z,19.20
2022-09-15T12:42:56.743Z,19.10
2022-09-15T12:45:34.143Z,18.90
2022-09-15T12:48:09.293Z,18.80
2022-09-15T12:50:43.132Z,18.70
2022-09-15T12:53:20.916Z,18.60
2022-09-15T12:55:51.908Z,18.50
2022-09-15T12:58:27.231Z,18.50
2022-09-15T13:01:53.362Z,18.50
2022-09-15T13:04:59.947Z,18.70
2022-09-15T13:08:00.385Z,18.80
2022-09-15T13:10:42.214Z,19.00
2022-09-15T13:13:53.409Z,19.30
2022-09-15T13:16:36.420Z,19.40
2022-09-15T13:19:12.524Z,19.50
2022-09-15T13:21:44.798Z,19.30
2022-09-15T13:24:21.896Z,19.10
2022-09-15T13:26:55.659Z,18.90
2022-09-15T13:29:25.482Z,18.80
2022-09-15T13:32:11.364Z,18.70
2022-09-15T13:35:18.276Z,18.60
2022-09-15T13:38:38.035Z,18.40
2022-09-15T13:41:39.093Z,18.30
2022-09-15T13:44:23.261Z,18.10
2022-09-15T13:47:10.801Z,18.10
2022-09-15T13:49:53.680Z,18.20
2022-09-15T13:52:56.974Z,18.30
2022-09-15T13:55:27.946Z,18.40
2022-09-15T14:01:02.357Z,18.50
2022-09-15T14:03:38.445Z,18.60
2022-09-15T14:06:27.083Z,18.70
2022-09-15T14:08:58.058Z,18.60
2022-09-15T14:11:36.332Z,18.60
2022-09-15T14:14:09.211Z,18.60
2022-09-15T14:16:39.306Z,18.70
2022-09-15T14:19:33.386Z,18.80
2022-09-15T14:22:02.389Z,18.80
2022-09-15T14:24:32.345Z,18.90
2022-09-15T14:27:08.883Z,18.80
2022-09-15T14:29:41.666Z,18.70
2022-09-15T14:32:14.958Z,18.60
2022-09-15T14:34:45.646Z,18.50
2022-09-15T14:37:22.420Z,18.40
2022-09-15T14:39:52.124Z,18.30
2022-09-15T14:42:26.104Z,18.20
2022-09-15T14:47:43.856Z,18.20
2022-09-15T14:50:17.455Z,18.20
2022-09-15T14:52:49.396Z,18.20
2022-09-15T14:55:23.205Z,18.20
2022-09-15T14:57:59.682Z,18.20
2022-09-15T15:00:30.699Z,18.20
2022-09-15T15:03:07.577Z,18.10
2022-09-15T15:05:41.718Z,18.10
2022-09-15T15:08:13.730Z,18.10
2022-09-15T15:10:42.783Z,18.00
2022-09-15T15:13:15.308Z,18.00
2022-09-15T15:15:44.522Z,18.00
2022-09-15T15:18:32.764Z,17.90
2022-09-15T15:21:03.651Z,17.90
2022-09-15T15:23:32.141Z,17.80
2022-09-15T15:26:25.738Z,17.80
2022-09-15T15:28:53.981Z,17.70
2022-09-15T15:31:25.136Z,17.60
2022-09-15T15:33:57.276Z,17.60
2022-09-15T15:36:28.697Z,17.50
2022-09-15T15:38:59.497Z,17.40
2022-09-15T15:41:29.531Z,17.40
2022-09-15T15:44:00.931Z,17.30
2022-09-15T15:46:50.661Z,17.30
2022-09-15T15:49:21.080Z,17.20
2022-09-15T15:52:06.717Z,17.10
2022-09-15T15:54:35.738Z,17.00
2022-09-15T15:57:23.019Z,17.00
2022-09-15T15:59:55.365Z,16.90
2022-09-15T16:05:09.753Z,16.80
2022-09-15T16:07:39.859Z,16.80
2022-09-15T16:10:09.349Z,16.80
2022-09-15T16:12:37.811Z,16.70
2022-09-15T16:15:12.746Z,16.70
2022-09-15T16:17:45.905Z,16.60
2022-09-15T16:20:16.218Z,16.60
2022-09-15T16:22:46.126Z,16.50
2022-09-15T16:25:18.335Z,16.40
2022-09-15T16:27:46.656Z,16.40
2022-09-15T16:30:14.895Z,16.30
2022-09-15T16:32:43.178Z,16.30
2022-09-15T16:35:45.790Z,16.30
2022-09-15T16:38:15.451Z,16.30
2022-09-15T16:40:43.843Z,16.20
2022-09-15T16:43:15.006Z,16.20
2022-09-15T16:45:43.660Z,16.20
2022-09-15T16:48:13.532Z,16.10
2022-09-15T16:50:50.061Z,16.00
2022-09-15T16:53:32.731Z,15.90
2022-09-15T16:56:01.054Z,15.80
2022-09-15T16:58:29.598Z,15.80
2022-09-15T17:00:58.115Z,15.70
2022-09-15T17:03:27.787Z,15.60
2022-09-15T17:05:57.502Z,15.50
2022-09-15T17:08:29.515Z,15.50
2022-09-15T17:11:01.270Z,15.40
2022-09-15T17:13:32.068Z,15.30
2022-09-15T17:16:01.518Z,15.20
2022-09-15T17:18:30.477Z,15.10
2022-09-15T17:20:59.008Z,15.10
2022-09-15T17:23:29.434Z,15.00
2022-09-15T17:26:11.701Z,14.90
2022-09-15T17:28:40.895Z,14.80
2022-09-15T17:31:15.671Z,14.70
2022-09-15T17:33:44.499Z,14.70
2022-09-15T17:36:13.470Z,14.60
2022-09-15T17:38:42.189Z,14.60
2022-09-15T17:41:35.244Z,14.50
2022-09-15T17:44:03.749Z,14.50
2022-09-15T17:46:32.338Z,14.50
2022-09-15T17:49:00.655Z,14.50
2022-09-15T17:51:29.545Z,14.40
2022-09-15T17:53:57.902Z,14.40
2022-09-15T17:56:29.310Z,14.40
2022-09-15T17:58:57.530Z,14.40
2022-09-15T18:01:25.833Z,14.40
2022-09-15T18:03:54.328Z,14.30
2022-09-15T18:06:22.659Z,14.30
2022-09-15T18:08:51.762Z,14.30
2022-09-15T18:11:20.341Z,14.30
2022-09-15T18:14:05.205Z,14.20
2022-09-15T18:16:33.635Z,14.20
2022-09-15T18:19:02.005Z,14.20
2022-09-15T18:21:31.439Z,14.20
2022-09-15T18:24:00.029Z,14.20
2022-09-15T18:26:28.380Z,14.20
2022-09-15T18:28:57.823Z,14.30
2022-09-15T18:31:42.706Z,14.30
2022-09-15T18:34:11.239Z,14.30
2022-09-15T18:36:40.463Z,14.30
2022-09-15T18:39:11.281Z,14.30
2022-09-15T18:41:40.191Z,14.30
2022-09-15T18:44:08.472Z,14.30
2022-09-15T18:46:39.195Z,14.40
2022-09-15T18:49:24.165Z,14.40
2022-09-15T18:51:52.541Z,14.40
2022-09-15T18:54:20.811Z,14.30
2022-09-15T18:56:49.062Z,14.40
2022-09-15T18:59:17.880Z,14.30
2022-09-15T19:01:46.382Z,14.30
2022-09-15T19:04:14.837Z,14.30
2022-09-15T19:06:59.400Z,14.20
2022-09-15T19:09:27.972Z,14.30
2022-09-15T19:11:56.474Z,14.30
2022-09-15T19:14:24.789Z,14.30
2022-09-15T19:16:58.176Z,14.20
2022-09-15T19:19:27.048Z,14.20
2022-09-15T19:21:55.337Z,14.20
2022-09-15T19:24:30.396Z,14.20
2022-09-15T19:27:00.801Z,14.20
2022-09-15T19:29:34.615Z,14.30
2022-09-15T19:32:03.227Z,14.30
2022-09-15T19:34:32.384Z,14.30
2022-09-15T19:37:00.851Z,14.30
2022-09-15T19:39:30.737Z,14.30
2022-09-15T19:41:59.232Z,14.30
2022-09-15T19:44:27.582Z,14.30
2022-09-15T19:46:56.161Z,14.30
2022-09-15T19:49:24.561Z,14.30
2022-09-15T19:51:55.599Z,14.30
2022-09-15T19:54:24.551Z,14.30
2022-09-15T19:56:54.313Z,14.30
2022-09-15T19:59:27.431Z,14.30
2022-09-15T20:01:58.801Z,14.30
2022-09-15T20:07:14.050Z,14.20
2022-09-15T20:09:42.988Z,14.20
2022-09-15T20:12:25.234Z,14.20
2022-09-15T20:14:54.159Z,14.20
2022-09-15T20:17:23.300Z,14.20
2022-09-15T20:19:52.541Z,14.10
2022-09-15T20:22:22.366Z,14.00
2022-09-15T20:24:51.674Z,14.00
2022-09-15T20:27:21.401Z,13.90
2022-09-15T20:29:49.649Z,13.90
2022-09-15T20:32:18.503Z,13.90
2022-09-15T20:34:50.997Z,13.90
2022-09-15T20:37:19.449Z,13.80
2022-09-15T20:39:47.918Z,13.80
2022-09-15T20:42:16.202Z,13.70
2022-09-15T20:44:46.209Z,13.60
2022-09-15T20:47:14.972Z,13.60
2022-09-15T20:49:43.485Z,13.50
2022-09-15T20:52:11.761Z,13.50
2022-09-15T20:54:40.677Z,13.40
2022-09-15T20:57:10.041Z,13.30
2022-09-15T20:59:38.679Z,13.30
2022-09-15T21:02:09.031Z,13.20
2022-09-15T21:04:37.285Z,13.10
2022-09-15T21:07:06.003Z,13.00
2022-09-15T21:09:34.296Z,13.00
2022-09-15T21:12:02.957Z,12.90
2022-09-15T21:14:31.279Z,12.80
2022-09-15T21:16:59.582Z,12.80
2022-09-15T21:19:29.280Z,12.70
2022-09-15T21:21:58.645Z,12.60
2022-09-15T21:24:26.927Z,12.60
2022-09-15T21:27:12.389Z,12.50
2022-09-15T21:29:41.018Z,12.50
2022-09-15T21:32:09.354Z,12.40
2022-09-15T21:34:39.110Z,12.40
2022-09-15T21:37:07.530Z,12.30
2022-09-15T21:39:35.771Z,12.30
2022-09-15T21:42:05.373Z,12.20
2022-09-15T21:44:33.721Z,12.20
2022-09-15T21:47:02.175Z,12.10
2022-09-15T21:49:31.407Z,12.10
2022-09-15T21:52:01.243Z,12.00
2022-09-15T21:54:29.683Z,12.00
2022-09-15T21:56:58.162Z,12.00
2022-09-15T21:59:26.449Z,11.90
2022-09-15T22:01:55.350Z,11.90
2022-09-15T22:04:23.602Z,11.90
2022-09-15T22:06:52.942Z,11.80
2022-09-15T22:09:23.103Z,11.80
2022-09-15T22:11:51.335Z,11.70
2022-09-15T22:14:19.714Z,11.70
2022-09-15T22:16:48.213Z,11.60
2022-09-15T22:19:16.740Z,11.60
2022-09-15T22:21:45.162Z,11.60
2022-09-15T22:24:14.694Z,11.50
2022-09-15T22:26:45.388Z,11.50
2022-09-15T22:29:13.763Z,11.40
2022-09-15T22:31:42.412Z,11.40
2022-09-15T22:34:10.811Z,11.40
2022-09-15T22:36:39.384Z,11.30
2022-09-15T22:39:08.096Z,11.30
2022-09-15T22:41:38.304Z,11.30
2022-09-15T22:44:14.329Z,11.30
2022-09-15T22:46:42.822Z,11.30
2022-09-15T22:49:11.176Z,11.20
2022-09-15T22:51:39.443Z,11.20
2022-09-15T22:54:07.751Z,11.20
2022-09-15T22:56:36.125Z,11.20
2022-09-15T22:59:04.451Z,11.20
2022-09-15T23:01:34.510Z,11.10
2022-09-15T23:04:04.096Z,11.10
2022-09-15T23:06:34.553Z,11.10
2022-09-15T23:09:05.306Z,11.10
2022-09-15T23:11:33.966Z,11.10
2022-09-15T23:14:06.945Z,11.10
2022-09-15T23:16:36.822Z,11.10
2022-09-15T23:19:05.326Z,11.00
2022-09-15T23:21:33.498Z,11.00
2022-09-15T23:24:02.046Z,11.00
2022-09-15T23:26:30.289Z,11.00
2022-09-15T23:28:58.852Z,10.90
2022-09-15T23:31:27.160Z,11.00
2022-09-15T23:33:56.822Z,10.90
2022-09-15T23:36:25.152Z,10.90
2022-09-15T23:38:53.744Z,10.90
2022-09-15T23:41:21.960Z,10.90
2022-09-15T23:43:50.194Z,10.90
2022-09-15T23:46:18.613Z,10.90
2022-09-15T23:48:46.778Z,10.90
2022-09-15T23:51:16.464Z,11.00
2022-09-15T23:53:44.853Z,11.00
2022-09-15T23:56:13.027Z,11.00
2022-09-15T23:58:41.394Z,11.10
